This is the latest recevied weather packets stored in our database for station/object N1ADJ. If no packets are shown the sender has not sent any weather packets the latest 10 day(s).
| Time | Temp. | Humidity | Pressure | Rain* | Wind** | Luminosity | Snow |
|---|---|---|---|---|---|---|---|
| 1777499757 | 10.56° C | 83% | 1014.8 hPa | 0 mm | - | - | - |
| 1777498817 | 10.56° C | 82% | 1014.7 hPa | 0 mm | - | - | - |
| 1777498217 | 10.56° C | 83% | 1014.7 hPa | 0 mm | - | - | - |
| 1777497917 | 10.56° C | 82% | 1014.7 hPa | 0 mm | - | - | - |
| 1777496417 | 11.11° C | 81% | 1014.9 hPa | 0 mm | - | - | - |
| 1777493437 | 11.67° C | 82% | 1015.4 hPa | 0 mm | - | - | - |
| 1777487118 | 13.33° C | 75% | 1016 hPa | 0 mm | - | - | - |
| 1777486816 | 13.33° C | 74% | 1016.1 hPa | 0 mm | - | - | - |
| 1777485017 | 13.33° C | 76% | 1015.9 hPa | 0 mm | - | - | - |
| 1777482639 | 13.33° C | 74% | 1015.9 hPa | 0 mm | - | - | - |
| 1777480516 | 13.33° C | 75% | 1016.3 hPa | 0 mm | - | - | - |
| 1777480216 | 13.33° C | 75% | 1016.3 hPa | 0 mm | - | - | - |
| 1777477516 | 13.33° C | 77% | 1017.3 hPa | 0 mm | - | - | - |
| 1777476936 | 13.33° C | 77% | 1017.3 hPa | 0 mm | - | - | - |
| 1777474538 | 11.67° C | 81% | 1018.5 hPa | 0 mm | - | - | - |
| 1777473920 | 11.11° C | 84% | 1018.3 hPa | 0 mm | - | - | - |
| 1777473619 | 11.11° C | 83% | 1018.6 hPa | 0 mm | - | - | - |
| 1777473338 | 11.11° C | 84% | 1018.5 hPa | 0 mm | - | - | - |
| 1777470358 | 9.44° C | 90% | 1018.7 hPa | 0 mm | - | - | - |
| 1777468218 | 8.89° C | 89% | 1019.1 hPa | 0 mm | - | - | - |
| 1777467038 | 8.89° C | 87% | 1019.4 hPa | 0 mm | - | - | - |
| 1777466718 | 8.89° C | 86% | 1019.3 hPa | 0 mm | - | - | - |
| 1777466120 | 8.89° C | 87% | 1019.2 hPa | 0 mm | - | - | - |
| 1777463718 | 8.33° C | 87% | 1019.1 hPa | 0 mm | - | - | - |
| 1777463418 | 8.33° C | 86% | 1019.2 hPa | 0 mm | - | - | - |
* Rain latest hour (hover to see other rain measurements)
** Current wind speed in m/s (hover to see current wind gust speed)